EGPDEKVG

Guest
Details From EGPD - Aberdeen Dyce
To EKVG - Vagar
Flight Number -
Tags Generated
Created
Modified
Stats Distance 330 nm / 611 km
Max Altitude 0 ft / 0 m
Waypoints 3
Social Downloads 1
Likes 0
Share VATSIM

Download

Looking for another format? Having issues loading an existing format? Contact us
Advertisement - Login to hide

Notes

Generated

Route

EGPD MF060 EKVG

ID Type Via Altitude Latitude Longitude Leg Dist Tot Dist Heading (true) Name
O EGPD APT - 0 ft / 0 m 57.20472˚ -2.20167˚ - 0 nm - Aberdeen Dyce
MF060 FIX - 0 ft / 0 m 62.06049˚ -7.26639˚ 329 nm 329 nm 334° / 330° -
O EKVG APT - 0 ft / 0 m 62.06621˚ -7.28761˚ 0 nm 330 nm 300° / 300° -

Altitude Profile

Advertisement - Login to hide

Weather


0- 5 10 15 20 25 30 35+ Temperature / ° C

Clouds and Precipitation
Forecast for 2017-12-13 18:00 UTC. Updated 2 hours ago

Ground ~20,000 ft ~40,000 ft Winds

EGPD

Details ICAO EGPD (ABZ)
Name Aberdeen Dyce
Region United Kingdom
Timezone Europe/London (UTC+0.0)
Stats Elevation 215 ft / 66 m (AMSL)
Location 57.203623° -2.199018°
Runways 4
Magnetic Variation 2.024° W

METAR

EGPD 131850Z AUTO 25006KT 9999 NCD 01/M03 Q0979 NOSIG

Decode

TAF

TAF EGPD 131702Z 1318/1418 26009KT 9999 SCT030

Decode

Departure Runways

ID Width Length Bearing (true) Bearing (mag) Surface Threshold Offset Overrun Length
05 151 ft / 46 m 1,555 ft / 474 m 46.38° 48.40° Concrete 0 ft / 0 m 0 ft / 0 m
14 118 ft / 36 m 1,901 ft / 579 m 139.16° 141.18° Asphalt 0 ft / 0 m 0 ft / 0 m
16 151 ft / 46 m 6,006 ft / 1,831 m 158.21° 160.23° Asphalt 0 ft / 0 m 0 ft / 0 m
18 75 ft / 23 m 896 ft / 273 m 179.48° 181.50° Asphalt 0 ft / 0 m 0 ft / 0 m
23 151 ft / 46 m 1,555 ft / 474 m 226.38° 228.40° Concrete 0 ft / 0 m 0 ft / 0 m
32 118 ft / 36 m 1,901 ft / 579 m 319.16° 321.18° Asphalt 0 ft / 0 m 0 ft / 0 m
34 151 ft / 46 m 6,006 ft / 1,831 m 338.22° 340.24° Asphalt 0 ft / 0 m 0 ft / 0 m
36 75 ft / 23 m 896 ft / 273 m 359.48° 1.50° Asphalt 0 ft / 0 m 0 ft / 0 m

EKVG

Details ICAO EKVG (FAE)
Name Vagar
Region Denmark / Faroe Islands
Timezone Atlantic/Faroe (UTC+0.0)
Stats Elevation 280 ft / 85 m (AMSL)
Location 62.063584° -7.277044°
Runways 1
Magnetic Variation 5.385° W

METAR

EKVG 131850Z AUTO 10003KT 9999NDV -SHRA BKN015/// 03/03 Q0971 RMK BKN024/// WIND 850FT 30007KT

Decode

TAF

Not found

Destination Runways

ID Width Length Bearing (true) Bearing (mag) Surface Threshold Offset Overrun Length
13 98 ft / 30 m 4,088 ft / 1,246 m 117.92° 123.30° Asphalt 0 ft / 0 m 197 ft / 60 m
31 98 ft / 30 m 4,088 ft / 1,246 m 297.94° 303.32° Asphalt 0 ft / 0 m 197 ft / 60 m

Approach Navaids

Runway Type Ident Frequency Range Bearing (true) Bearing (mag) Slope Elevation
13 Localiser SF 109.10 MHz 17 nm / 31 km 104.19° 109.57° - 268 ft / 82 m (AMSL)
13 DME SF 109.10 MHz 18 nm / 33 km - - - 268 ft / 82 m (AMSL)
31 Localiser MF 110.30 MHz 26 nm / 48 km 296.18° 301.56° - 276 ft / 84 m (AMSL)
31 DME MF 110.30 MHz 25 nm / 46 km - - - 275 ft / 84 m (AMSL)

Popular Alternatives